createdAt,value
2022-07-31T00:00:22.741Z,19.50
2022-07-31T00:02:51.220Z,22.10
2022-07-31T00:05:18.879Z,20.87
2022-07-31T00:07:46.562Z,23.77
2022-07-31T00:10:14.326Z,20.80
2022-07-31T00:12:43.476Z,20.53
2022-07-31T00:15:12.530Z,20.20
2022-07-31T00:17:40.266Z,21.87
2022-07-31T00:20:09.547Z,21.03
2022-07-31T00:22:37.773Z,29.37
2022-07-31T00:25:06.208Z,18.97
2022-07-31T00:27:34.005Z,24.17
2022-07-31T00:30:02.962Z,21.97
2022-07-31T00:32:30.546Z,21.60
2022-07-31T00:34:58.118Z,16.77
2022-07-31T00:37:26.052Z,27.53
2022-07-31T00:39:54.345Z,27.53
2022-07-31T00:42:22.838Z,18.47
2022-07-31T00:44:51.291Z,20.40
2022-07-31T00:47:22.267Z,20.80
2022-07-31T00:49:53.324Z,24.43
2022-07-31T00:52:21.578Z,19.33
2022-07-31T00:54:49.197Z,20.63
2022-07-31T00:57:16.778Z,18.73
2022-07-31T00:59:44.661Z,23.50
2022-07-31T01:02:12.753Z,19.83
2022-07-31T01:04:41.914Z,18.17
2022-07-31T01:07:12.338Z,22.37
2022-07-31T01:09:40.120Z,22.83
2022-07-31T01:12:13.199Z,21.80
2022-07-31T01:14:49.002Z,18.93
2022-07-31T01:17:18.105Z,19.00
2022-07-31T01:19:48.937Z,30.53
2022-07-31T01:22:33.362Z,23.93
2022-07-31T01:25:08.555Z,21.20
2022-07-31T01:27:53.844Z,19.13
2022-07-31T01:30:28.950Z,20.67
2022-07-31T01:32:59.122Z,16.43
2022-07-31T01:35:28.643Z,22.00
2022-07-31T01:38:00.444Z,18.37
2022-07-31T01:40:31.066Z,20.83
2022-07-31T01:43:03.377Z,21.30
2022-07-31T01:45:34.099Z,22.13
2022-07-31T01:48:02.954Z,17.83
2022-07-31T01:50:43.262Z,19.60
2022-07-31T01:53:14.315Z,22.00
2022-07-31T01:56:02.563Z,19.10
2022-07-31T01:58:34.926Z,19.07
2022-07-31T02:01:11.517Z,42.87
2022-07-31T02:03:43.527Z,22.40
2022-07-31T02:06:16.068Z,24.20
2022-07-31T02:08:45.066Z,19.13
2022-07-31T02:11:15.961Z,22.63
2022-07-31T02:13:44.595Z,34.40
2022-07-31T02:16:14.632Z,24.57
2022-07-31T02:18:42.970Z,24.93
2022-07-31T02:21:22.331Z,20.23
2022-07-31T02:23:52.383Z,17.60
2022-07-31T02:26:20.329Z,21.30
2022-07-31T02:28:48.649Z,24.40
2022-07-31T02:31:18.400Z,21.67
2022-07-31T02:33:48.214Z,18.27
2022-07-31T02:36:18.851Z,19.87
2022-07-31T02:38:47.225Z,22.43
2022-07-31T02:41:15.808Z,19.60
2022-07-31T02:43:45.443Z,18.33
2022-07-31T02:46:23.038Z,28.97
2022-07-31T02:48:52.213Z,19.40
2022-07-31T02:51:22.653Z,21.43
2022-07-31T02:53:52.417Z,26.17
2022-07-31T02:56:22.600Z,20.40
2022-07-31T02:58:50.232Z,23.83
2022-07-31T03:01:24.575Z,33.07
2022-07-31T03:03:52.609Z,22.50
2022-07-31T03:06:20.326Z,22.60
2022-07-31T03:08:48.357Z,21.63
2022-07-31T03:11:20.006Z,24.00
2022-07-31T03:13:49.076Z,22.33
2022-07-31T03:16:16.852Z,20.90
2022-07-31T03:18:46.808Z,23.60
2022-07-31T03:21:14.666Z,20.17
2022-07-31T03:23:42.495Z,24.13
2022-07-31T03:26:16.692Z,21.27
2022-07-31T03:28:44.362Z,21.07
2022-07-31T03:31:11.960Z,21.43
2022-07-31T03:33:39.660Z,33.57
2022-07-31T03:36:09.756Z,22.17
2022-07-31T03:38:41.235Z,24.53
2022-07-31T03:41:17.798Z,27.67
2022-07-31T03:43:47.912Z,26.63
2022-07-31T03:46:20.363Z,23.43
2022-07-31T03:48:51.857Z,24.23
2022-07-31T03:51:21.429Z,20.13
2022-07-31T03:53:49.822Z,26.90
2022-07-31T03:56:49.040Z,19.13
2022-07-31T03:59:18.704Z,19.40
2022-07-31T04:02:10.434Z,27.40
2022-07-31T04:04:48.302Z,22.33
2022-07-31T04:07:17.331Z,21.10
2022-07-31T04:09:45.073Z,23.77
2022-07-31T04:12:13.983Z,21.77
2022-07-31T04:14:41.631Z,21.13
2022-07-31T04:17:09.513Z,20.63
2022-07-31T04:19:37.480Z,25.13
2022-07-31T04:22:06.640Z,25.27
2022-07-31T04:24:36.285Z,20.03
2022-07-31T04:27:22.749Z,22.43
2022-07-31T04:29:50.678Z,22.23
2022-07-31T04:32:21.877Z,18.67
2022-07-31T04:34:54.587Z,21.60
2022-07-31T04:37:22.492Z,20.60
2022-07-31T04:39:51.842Z,21.53
2022-07-31T04:42:20.031Z,21.53
2022-07-31T04:44:47.707Z,20.87
2022-07-31T04:47:16.754Z,20.67
2022-07-31T04:49:48.395Z,19.80
2022-07-31T04:52:17.954Z,21.33
2022-07-31T04:54:47.851Z,21.87
2022-07-31T04:57:21.723Z,20.63
2022-07-31T05:00:00.541Z,19.53
2022-07-31T05:02:31.194Z,22.90
2022-07-31T05:04:58.912Z,24.70
2022-07-31T05:07:36.288Z,15.43
2022-07-31T05:10:30.484Z,20.27
2022-07-31T05:12:59.540Z,19.90
2022-07-31T05:15:27.427Z,26.20
2022-07-31T05:17:57.073Z,15.97
2022-07-31T05:20:47.737Z,19.00
2022-07-31T05:23:45.970Z,19.43
2022-07-31T05:26:19.007Z,22.40
2022-07-31T05:28:49.584Z,17.80
2022-07-31T05:31:19.734Z,17.27
2022-07-31T05:33:49.240Z,17.27
2022-07-31T05:36:17.591Z,19.37
2022-07-31T05:38:45.428Z,18.07
2022-07-31T05:41:34.069Z,20.60
2022-07-31T05:44:17.468Z,21.70
2022-07-31T05:46:47.412Z,18.33
2022-07-31T05:49:15.745Z,25.50
2022-07-31T05:51:46.567Z,27.43
2022-07-31T05:54:14.394Z,24.90
2022-07-31T05:57:00.339Z,20.97
2022-07-31T05:59:41.497Z,20.73
2022-07-31T06:02:09.335Z,19.57
2022-07-31T06:05:10.431Z,18.90
2022-07-31T06:07:39.102Z,18.43
2022-07-31T06:10:07.901Z,20.10
2022-07-31T06:12:35.558Z,22.53
2022-07-31T06:15:05.030Z,15.97
2022-07-31T06:17:44.225Z,17.57
2022-07-31T06:20:21.180Z,21.07
2022-07-31T06:22:49.256Z,20.57
2022-07-31T06:25:17.234Z,16.13
2022-07-31T06:27:45.968Z,14.50
2022-07-31T06:30:20.000Z,20.10
2022-07-31T06:32:49.050Z,15.50
2022-07-31T06:35:16.815Z,16.27
2022-07-31T06:38:04.641Z,18.93
2022-07-31T06:40:44.983Z,18.43
2022-07-31T06:43:24.759Z,17.80
2022-07-31T06:46:15.758Z,14.93
2022-07-31T06:49:15.803Z,15.93
2022-07-31T06:51:43.474Z,13.77
2022-07-31T06:54:11.946Z,11.13
2022-07-31T06:56:40.278Z,12.40
2022-07-31T06:59:08.457Z,13.23
2022-07-31T07:01:37.767Z,8.60
2022-07-31T07:04:05.687Z,20.40
2022-07-31T07:06:33.426Z,6.60
2022-07-31T07:09:01.065Z,6.73
2022-07-31T07:11:28.826Z,9.10
2022-07-31T07:13:56.467Z,10.23
2022-07-31T07:16:24.178Z,6.50
2022-07-31T07:18:53.124Z,13.10
2022-07-31T07:21:23.750Z,6.60
2022-07-31T07:23:51.364Z,6.63
2022-07-31T07:26:34.128Z,9.20
2022-07-31T07:29:03.484Z,6.80
2022-07-31T07:31:32.770Z,10.17
2022-07-31T07:34:06.085Z,9.87
2022-07-31T07:36:34.257Z,11.90
2022-07-31T07:39:05.156Z,17.03
2022-07-31T07:41:34.690Z,8.70
2022-07-31T07:44:02.828Z,14.80
2022-07-31T07:46:31.723Z,15.73
2022-07-31T07:49:05.591Z,12.30
2022-07-31T07:51:35.960Z,21.63
2022-07-31T07:54:22.171Z,10.50
2022-07-31T07:57:08.565Z,10.80
2022-07-31T08:00:03.290Z,11.67
2022-07-31T08:03:02.902Z,11.37
2022-07-31T08:05:43.350Z,8.50
2022-07-31T08:08:11.337Z,8.47
2022-07-31T08:10:48.014Z,9.37
2022-07-31T08:13:22.656Z,9.13
2022-07-31T08:16:25.776Z,7.40
2022-07-31T08:18:57.467Z,8.70
2022-07-31T08:21:27.760Z,8.67
2022-07-31T08:23:56.042Z,9.30
2022-07-31T08:26:23.691Z,8.33
2022-07-31T08:28:55.917Z,14.80
2022-07-31T08:31:25.576Z,7.80
2022-07-31T08:34:10.274Z,7.90
2022-07-31T08:36:40.054Z,12.93
2022-07-31T08:39:07.900Z,13.17
2022-07-31T08:42:05.224Z,12.13
2022-07-31T08:44:33.064Z,11.47
2022-07-31T08:47:01.066Z,7.10
2022-07-31T08:49:30.324Z,11.00
2022-07-31T08:52:00.219Z,8.77
2022-07-31T08:54:55.343Z,7.63
2022-07-31T08:57:26.852Z,7.20
2022-07-31T08:59:55.444Z,13.80
2022-07-31T09:02:23.554Z,7.47
2022-07-31T09:05:13.143Z,7.93
2022-07-31T09:07:43.182Z,9.87
2022-07-31T09:10:21.751Z,9.90
2022-07-31T09:12:50.864Z,10.43
2022-07-31T09:15:24.028Z,11.80
2022-07-31T09:17:53.862Z,11.40
2022-07-31T09:20:24.389Z,7.73
2022-07-31T09:23:05.209Z,8.87
2022-07-31T09:25:33.637Z,6.37
2022-07-31T09:28:03.287Z,11.60
2022-07-31T09:30:31.932Z,5.17
2022-07-31T09:33:21.653Z,10.23
2022-07-31T09:36:01.538Z,7.57
2022-07-31T09:38:34.184Z,6.67
2022-07-31T09:41:55.639Z,8.27
2022-07-31T09:44:16.814Z,5.77
2022-07-31T09:46:48.169Z,12.30
2022-07-31T09:49:16.098Z,6.43
2022-07-31T09:51:48.316Z,10.37
2022-07-31T09:54:26.341Z,6.10
2022-07-31T09:57:00.270Z,6.17
2022-07-31T09:59:33.297Z,7.13
2022-07-31T10:02:01.663Z,6.00
2022-07-31T10:04:29.791Z,7.87
2022-07-31T10:06:57.930Z,9.60
2022-07-31T10:09:28.483Z,7.20
2022-07-31T10:12:06.567Z,8.50
2022-07-31T10:14:40.063Z,7.20
2022-07-31T10:17:08.493Z,4.90
2022-07-31T10:19:51.214Z,8.17
2022-07-31T10:22:45.062Z,10.83
2022-07-31T10:25:21.021Z,12.93
2022-07-31T10:27:49.814Z,8.60
2022-07-31T10:30:18.035Z,8.43
2022-07-31T10:32:52.754Z,8.60
2022-07-31T10:35:29.520Z,7.67
2022-07-31T10:38:05.778Z,5.40
2022-07-31T10:41:07.032Z,6.43
2022-07-31T10:43:40.800Z,6.10
2022-07-31T10:46:13.927Z,9.27
2022-07-31T10:49:08.527Z,5.37
2022-07-31T10:51:55.641Z,5.93
2022-07-31T10:54:47.472Z,7.40
2022-07-31T10:57:55.418Z,6.03
2022-07-31T11:00:31.252Z,7.07
2022-07-31T11:03:19.338Z,4.93
2022-07-31T11:06:05.500Z,10.90
2022-07-31T11:08:55.570Z,7.87
2022-07-31T11:11:42.055Z,4.60
2022-07-31T11:14:38.774Z,4.53
2022-07-31T11:18:21.269Z,4.70
2022-07-31T11:20:26.947Z,6.27
2022-07-31T11:23:03.170Z,7.00
2022-07-31T11:25:34.068Z,5.73
2022-07-31T11:28:11.774Z,6.63
2022-07-31T11:30:51.170Z,9.53
2022-07-31T11:33:41.577Z,8.17
2022-07-31T11:36:12.542Z,5.40
2022-07-31T11:38:41.584Z,4.53
2022-07-31T11:41:09.984Z,6.23
2022-07-31T11:43:39.559Z,5.43
2022-07-31T11:46:08.575Z,6.77
2022-07-31T11:48:44.910Z,5.00
2022-07-31T11:51:18.318Z,4.57
2022-07-31T11:53:51.129Z,8.37
2022-07-31T11:56:25.792Z,4.47
2022-07-31T11:58:54.785Z,8.47
2022-07-31T12:01:28.218Z,6.50
2022-07-31T12:03:56.436Z,4.90
2022-07-31T12:06:24.343Z,7.30
2022-07-31T12:08:53.300Z,6.73
2022-07-31T12:11:21.753Z,6.30
2022-07-31T12:13:50.301Z,5.87
2022-07-31T12:16:18.642Z,6.00
2022-07-31T12:18:49.697Z,7.07
2022-07-31T12:21:18.114Z,4.90
2022-07-31T12:23:47.445Z,4.77
2022-07-31T12:26:23.241Z,5.93
2022-07-31T12:28:58.361Z,8.73
2022-07-31T12:31:26.172Z,3.80
2022-07-31T12:33:55.549Z,6.70
2022-07-31T12:36:23.481Z,6.00
2022-07-31T12:39:00.801Z,8.13
2022-07-31T12:41:28.759Z,6.07
2022-07-31T12:43:56.608Z,6.87
2022-07-31T12:46:36.731Z,6.90
2022-07-31T12:49:06.493Z,5.60
2022-07-31T12:51:44.878Z,4.17
2022-07-31T12:54:15.569Z,11.13
2022-07-31T12:56:43.961Z,6.73
2022-07-31T12:59:12.123Z,8.43
2022-07-31T13:01:39.981Z,6.60
2022-07-31T13:04:18.721Z,4.87
2022-07-31T13:06:51.087Z,7.97
2022-07-31T13:09:19.370Z,5.10
2022-07-31T13:11:48.365Z,8.33
2022-07-31T13:16:57.563Z,14.33
2022-07-31T13:19:25.117Z,7.27
2022-07-31T13:21:52.701Z,6.70
2022-07-31T13:24:24.614Z,5.40
2022-07-31T13:26:52.838Z,6.80
2022-07-31T13:29:20.632Z,6.57
2022-07-31T13:31:48.390Z,11.60
2022-07-31T13:34:17.354Z,8.70
2022-07-31T13:36:44.921Z,5.43
2022-07-31T13:39:12.565Z,4.70
2022-07-31T13:41:40.413Z,6.30
2022-07-31T13:44:08.436Z,4.80
2022-07-31T13:46:36.523Z,8.60
2022-07-31T13:49:08.267Z,5.77
2022-07-31T13:51:37.774Z,4.10
2022-07-31T13:54:05.612Z,10.57
2022-07-31T13:56:39.705Z,6.77
2022-07-31T13:59:11.874Z,5.83
2022-07-31T14:02:13.600Z,6.20
2022-07-31T14:04:28.553Z,5.03
2022-07-31T14:07:03.513Z,5.70
2022-07-31T14:09:34.113Z,7.70
2022-07-31T14:12:03.835Z,5.50
2022-07-31T14:14:32.889Z,5.83
2022-07-31T14:17:00.562Z,5.47
2022-07-31T14:19:28.275Z,7.00
2022-07-31T14:21:57.361Z,4.80
2022-07-31T14:24:27.152Z,4.63
2022-07-31T14:26:54.830Z,6.87
2022-07-31T14:29:22.460Z,6.77
2022-07-31T14:31:50.324Z,8.03
2022-07-31T14:34:17.931Z,11.57
2022-07-31T14:36:45.500Z,5.93
2022-07-31T14:39:13.097Z,7.50
2022-07-31T14:41:41.994Z,6.40
2022-07-31T14:44:09.587Z,7.90
2022-07-31T14:46:37.177Z,14.10
2022-07-31T14:49:05.382Z,19.37
2022-07-31T14:51:33.013Z,7.13
2022-07-31T14:54:00.576Z,5.97
2022-07-31T14:56:58.421Z,10.00
2022-07-31T14:59:17.014Z,7.10
2022-07-31T15:01:44.616Z,9.20
2022-07-31T15:04:12.312Z,4.67
2022-07-31T15:06:59.013Z,10.07
2022-07-31T15:09:27.796Z,9.63
2022-07-31T15:12:00.951Z,6.97
2022-07-31T15:14:30.416Z,7.60
2022-07-31T15:16:58.029Z,8.50
2022-07-31T15:19:25.670Z,9.97
2022-07-31T15:22:10.643Z,17.13
2022-07-31T15:24:46.879Z,7.80
2022-07-31T15:27:17.745Z,10.30
2022-07-31T15:30:04.456Z,9.17
2022-07-31T15:32:34.395Z,10.00
2022-07-31T15:35:02.691Z,9.40
2022-07-31T15:37:30.485Z,11.33
2022-07-31T15:40:02.823Z,8.20
2022-07-31T15:42:31.796Z,7.97
2022-07-31T15:45:00.820Z,8.67
2022-07-31T15:47:28.518Z,13.77
2022-07-31T15:49:56.109Z,14.50
2022-07-31T15:52:23.749Z,10.10
2022-07-31T15:54:52.580Z,10.10
2022-07-31T15:57:20.614Z,14.03
2022-07-31T15:59:48.358Z,16.50
2022-07-31T16:02:17.639Z,10.17
2022-07-31T16:04:53.381Z,12.73
2022-07-31T16:08:32.999Z,9.63
2022-07-31T16:10:15.552Z,15.87
2022-07-31T16:12:45.378Z,12.33
2022-07-31T16:15:13.432Z,10.93
2022-07-31T16:17:42.626Z,10.20
2022-07-31T16:20:12.588Z,12.20
2022-07-31T16:22:41.536Z,11.40
2022-07-31T16:25:10.707Z,11.77
2022-07-31T16:27:38.898Z,14.20
2022-07-31T16:30:08.068Z,16.07
2022-07-31T16:32:35.730Z,13.47
2022-07-31T16:35:06.176Z,13.20
2022-07-31T16:37:51.712Z,12.37
2022-07-31T16:40:30.898Z,18.10
2022-07-31T16:43:01.822Z,18.00
2022-07-31T16:45:30.730Z,12.70
2022-07-31T16:47:58.615Z,12.27
2022-07-31T16:50:27.707Z,11.20
2022-07-31T16:52:55.602Z,12.80
2022-07-31T16:55:55.762Z,15.47
2022-07-31T16:58:12.213Z,13.50
2022-07-31T17:00:40.263Z,13.87
2022-07-31T17:04:02.134Z,14.27
2022-07-31T17:05:57.819Z,14.70
2022-07-31T17:08:25.490Z,15.67
2022-07-31T17:10:54.859Z,15.10
2022-07-31T17:13:22.780Z,15.90
2022-07-31T17:15:50.358Z,14.80
2022-07-31T17:18:17.949Z,15.40
2022-07-31T17:20:47.149Z,18.30
2022-07-31T17:23:16.676Z,16.60
2022-07-31T17:26:04.344Z,16.87
2022-07-31T17:28:31.954Z,16.80
2022-07-31T17:30:59.541Z,17.40
2022-07-31T17:33:54.636Z,16.00
2022-07-31T17:36:14.991Z,18.80
2022-07-31T17:38:43.896Z,17.93
2022-07-31T17:41:24.673Z,19.90
2022-07-31T17:43:53.125Z,20.67
2022-07-31T17:46:21.987Z,23.80
2022-07-31T17:48:56.041Z,21.17
2022-07-31T17:51:23.765Z,18.97
2022-07-31T17:53:55.230Z,21.37
2022-07-31T17:56:27.246Z,20.47
2022-07-31T17:58:55.465Z,20.87
2022-07-31T18:01:28.555Z,21.17
2022-07-31T18:03:56.566Z,23.07
2022-07-31T18:06:24.214Z,23.10
2022-07-31T18:08:53.183Z,21.50
2022-07-31T18:11:21.351Z,22.30
2022-07-31T18:13:51.661Z,21.63
2022-07-31T18:16:24.626Z,22.07
2022-07-31T18:18:54.452Z,21.80
2022-07-31T18:21:22.474Z,22.00
2022-07-31T18:23:50.092Z,21.70
2022-07-31T18:26:19.015Z,22.83
2022-07-31T18:28:46.681Z,25.17
2022-07-31T18:31:34.423Z,24.00
2022-07-31T18:34:02.274Z,24.77
2022-07-31T18:36:29.892Z,22.10
2022-07-31T18:38:57.728Z,23.70
2022-07-31T18:41:27.051Z,25.43
2022-07-31T18:43:54.674Z,23.93
2022-07-31T18:46:23.638Z,38.53
2022-07-31T18:48:55.445Z,25.40
2022-07-31T18:51:23.838Z,24.13
2022-07-31T18:53:51.929Z,24.40
2022-07-31T18:56:22.548Z,26.23
2022-07-31T18:58:51.848Z,26.40
2022-07-31T19:01:19.530Z,26.70
2022-07-31T19:03:47.242Z,25.63
2022-07-31T19:06:14.836Z,27.67
2022-07-31T19:08:42.600Z,28.00
2022-07-31T19:11:11.699Z,28.07
2022-07-31T19:13:39.314Z,29.70
2022-07-31T19:16:08.453Z,28.10
2022-07-31T19:18:37.619Z,26.60
2022-07-31T19:21:22.983Z,25.83
2022-07-31T19:23:53.571Z,25.27
2022-07-31T19:26:21.266Z,23.60
2022-07-31T19:28:48.855Z,21.53
2022-07-31T19:31:18.018Z,19.67
2022-07-31T19:33:45.583Z,18.33
2022-07-31T19:36:15.262Z,19.77
2022-07-31T19:38:44.299Z,20.67
2022-07-31T19:41:12.286Z,21.83
2022-07-31T19:43:39.920Z,20.30
2022-07-31T19:46:11.500Z,20.87
2022-07-31T19:48:41.488Z,20.47
2022-07-31T19:51:09.499Z,20.13
2022-07-31T19:53:37.328Z,21.70
2022-07-31T19:56:06.446Z,20.37
2022-07-31T19:58:34.999Z,25.83
2022-07-31T20:01:03.403Z,19.33
2022-07-31T20:03:31.115Z,18.17
2022-07-31T20:06:00.168Z,19.60
2022-07-31T20:08:29.674Z,16.80
2022-07-31T20:11:03.248Z,16.07
2022-07-31T20:13:31.519Z,15.53
2022-07-31T20:15:59.413Z,15.33
2022-07-31T20:18:30.596Z,13.50
2022-07-31T20:21:02.533Z,13.00
2022-07-31T20:23:30.889Z,11.20
2022-07-31T20:25:58.754Z,9.87
2022-07-31T20:28:26.890Z,9.23
2022-07-31T20:30:54.734Z,13.40
2022-07-31T20:33:22.340Z,9.63
2022-07-31T20:35:50.525Z,9.23
2022-07-31T20:38:20.336Z,11.30
2022-07-31T20:40:54.121Z,10.93
2022-07-31T20:43:23.165Z,9.03
2022-07-31T20:45:50.923Z,9.10
2022-07-31T20:48:18.775Z,9.13
2022-07-31T20:50:48.156Z,8.53
2022-07-31T20:53:16.272Z,9.17
2022-07-31T20:55:47.010Z,9.83
2022-07-31T20:58:14.895Z,10.57
2022-07-31T21:00:42.560Z,10.53
2022-07-31T21:03:10.167Z,11.07
2022-07-31T21:05:37.962Z,11.00
2022-07-31T21:08:05.799Z,11.60
2022-07-31T21:10:34.052Z,12.07
2022-07-31T21:13:03.006Z,17.20
2022-07-31T21:15:41.870Z,13.60
2022-07-31T21:18:12.412Z,13.27
2022-07-31T21:20:50.726Z,13.33
2022-07-31T21:23:21.603Z,12.90
2022-07-31T21:25:49.647Z,15.70
2022-07-31T21:28:19.254Z,13.60
2022-07-31T21:30:47.499Z,14.90
2022-07-31T21:33:15.522Z,14.40
2022-07-31T21:35:43.760Z,13.33
2022-07-31T21:38:11.859Z,14.20
2022-07-31T21:40:40.971Z,13.90
2022-07-31T21:43:09.065Z,14.60
2022-07-31T21:45:55.658Z,14.60
2022-07-31T21:48:26.797Z,15.37
2022-07-31T21:50:55.679Z,14.90
2022-07-31T21:53:23.703Z,14.90
2022-07-31T21:55:51.622Z,14.57
2022-07-31T21:58:19.392Z,15.07
2022-07-31T22:00:48.543Z,15.03
2022-07-31T22:03:16.157Z,15.30
2022-07-31T22:06:09.896Z,16.10
2022-07-31T22:08:37.591Z,15.87
2022-07-31T22:11:05.497Z,17.27
2022-07-31T22:13:33.214Z,18.13
2022-07-31T22:16:02.437Z,17.40
2022-07-31T22:18:32.205Z,20.37
2022-07-31T22:21:00.622Z,20.67
2022-07-31T22:23:28.964Z,21.97
2022-07-31T22:25:56.916Z,22.03
2022-07-31T22:28:26.761Z,20.80
2022-07-31T22:30:54.908Z,20.30
2022-07-31T22:33:24.381Z,22.30
2022-07-31T22:35:58.968Z,21.97
2022-07-31T22:38:29.755Z,25.63
2022-07-31T22:40:57.632Z,21.33
2022-07-31T22:44:10.668Z,22.57
2022-07-31T22:46:13.768Z,20.37
2022-07-31T22:48:42.910Z,21.70
2022-07-31T22:51:13.546Z,33.83
2022-07-31T22:53:42.165Z,22.13
2022-07-31T22:56:09.743Z,24.00
2022-07-31T22:58:37.344Z,20.10
2022-07-31T23:01:05.000Z,22.63
2022-07-31T23:03:32.610Z,22.30
2022-07-31T23:06:28.135Z,20.80
2022-07-31T23:08:53.584Z,20.33
2022-07-31T23:11:23.155Z,21.93
2022-07-31T23:13:51.040Z,22.13
2022-07-31T23:16:18.713Z,20.57
2022-07-31T23:18:46.507Z,25.03
2022-07-31T23:21:15.469Z,20.50
2022-07-31T23:23:47.963Z,21.77
2022-07-31T23:26:16.600Z,21.73
2022-07-31T23:28:44.269Z,21.13
2022-07-31T23:31:11.922Z,22.93
2022-07-31T23:33:39.554Z,20.93
2022-07-31T23:36:07.401Z,20.40
2022-07-31T23:38:36.307Z,25.97
2022-07-31T23:41:03.992Z,21.27
2022-07-31T23:43:30.780Z,20.83
2022-07-31T23:45:58.542Z,19.57
2022-07-31T23:48:29.279Z,18.40
2022-07-31T23:50:58.087Z,22.33
2022-07-31T23:53:25.794Z,21.10
2022-07-31T23:55:54.883Z,22.00
2022-07-31T23:58:22.497Z,21.27
